Time;durP1;ratioP1;P1;durP2;ratioP2;P2;SDS_P1;SDS_P2;PMS_P1;PMS_P2;Temp;Humidity;BMP_temperature;BMP_pressure;BME280_temperature;BME280_humidity;BME280_pressure;Samples;Min_cycle;Max_cycle;Signal;HPM_P1;HPM_P2
2021/08/12 00:01:23;;;;;;;11.13;9.83;;;;;;;27.47;45.16;94625.39;833822;71;30313;-74
2021/08/12 00:16:27;;;;;;;10.67;9.70;;;;;;;26.53;46.54;94657.95;831242;71;32861;-78
2021/08/12 00:31:24;;;;;;;10.40;9.50;;;;;;;26.15;48.01;94637.97;827267;71;32865;-77
2021/08/12 00:46:21;;;;;;;11.57;10.43;;;;;;;26.66;46.82;94634.10;827395;71;32674;-78
2021/08/12 01:01:13;;;;;;;9.80;8.93;;;;;;;26.81;46.39;94636.79;828073;71;30139;-77
2021/08/12 01:16:30;;;;;;;10.53;9.53;;;;;;;26.90;46.08;94638.48;833903;71;30021;-78
2021/08/12 01:32:00;;;;;;;10.90;9.80;;;;;;;26.92;46.27;94636.93;827318;71;32751;-75
2021/08/12 01:46:23;;;;;;;9.90;9.10;;;;;;;;;;833832;71;30297;-75
2021/08/12 02:01:21;;;;;;;10.30;9.43;;;;;;;26.77;46.42;94644.88;828360;71;29994;-76
2021/08/12 02:16:18;;;;;;;10.43;9.57;;;;;;;26.84;46.35;94655.61;833891;71;30404;-76
2021/08/12 02:31:22;;;;;;;10.40;9.50;;;;;;;26.66;46.29;94657.57;834012;71;32714;-75
2021/08/12 02:46:21;;;;;;;10.60;9.70;;;;;;;26.72;46.21;94660.06;827558;71;32718;-78
2021/08/12 03:16:15;;;;;;;10.13;9.23;;;;;;;26.61;46.39;94667.40;833901;71;33183;-78
2021/08/12 03:31:08;;;;;;;10.23;9.10;;;;;;;26.53;46.95;94669.30;828209;71;30053;-74
2021/08/12 03:46:08;;;;;;;12.27;11.07;;;;;;;26.64;46.73;94669.30;833836;71;29734;-77
2021/08/12 04:01:08;;;;;;;11.63;10.63;;;;;;;26.64;46.84;94680.07;828973;71;29672;-77
2021/08/12 04:16:26;;;;;;;11.13;10.13;;;;;;;;;;827101;71;32714;-77
2021/08/12 04:31:22;;;;;;;11.53;10.43;;;;;;;26.97;46.12;94705.23;828478;71;31402;-76
2021/08/12 04:46:15;;;;;;;41.60;37.53;;;;;;;;;;828352;71;29445;-79
2021/08/12 04:47:18;;;;;;;34.87;31.60;;;;;;;;;;808811;73;25781;-78
2021/08/12 05:01:15;;;;;;;14.10;12.80;;;;;;;;;;834251;71;29262;-78
2021/08/12 05:16:27;;;;;;;13.63;12.23;;;;;;;;;;828215;71;29419;-77
2021/08/12 05:31:10;;;;;;;13.47;12.27;;;;;;;28.48;44.16;94736.17;834025;71;29803;-78
2021/08/12 05:46:26;;;;;;;12.70;11.60;;;;;;;28.92;42.96;94742.20;828281;71;31059;-77
2021/08/12 06:01:26;;;;;;;12.97;11.83;;;;;;;29.33;42.51;94746.08;827938;71;32199;-79
2021/08/12 06:16:33;;;;;;;13.67;12.47;;;;;;;29.47;42.34;94755.38;835339;71;31936;-79
2021/08/12 06:31:20;;;;;;;13.40;12.00;;;;;;;29.52;42.62;94750.11;827828;71;30436;-78
2021/08/12 06:46:20;;;;;;;12.33;11.20;;;;;;;30.14;41.86;94757.09;827413;71;31759;-78
2021/08/12 07:01:17;;;;;;;11.67;10.47;;;;;;;31.19;40.52;94757.65;827312;71;32117;-79
2021/08/12 07:16:15;;;;;;;12.10;10.93;;;;;;;31.85;39.32;94769.58;827361;71;31834;-77
2021/08/12 07:31:34;;;;;;;11.47;10.60;;;;;;;32.07;39.48;94773.25;828090;71;31900;-80
2021/08/12 07:46:28;;;;;;;10.93;10.10;;;;;;;32.53;38.87;94772.83;833749;71;31746;-77
2021/08/12 08:01:20;;;;;;;11.93;10.83;;;;;;;32.49;37.51;94776.22;828304;71;29646;-81
2021/08/12 08:16:31;;;;;;;12.30;11.20;;;;;;;32.89;36.36;94771.41;828365;71;28652;-77
2021/08/12 08:31:20;;;;;;;9.17;8.47;;;;;;;33.54;34.89;94767.06;827260;71;31751;-77
2021/08/12 08:46:21;;;;;;;9.23;8.43;;;;;;;34.11;33.59;94763.35;827650;71;31716;-78
2021/08/12 11:16:09;;;;;;;10.60;9.10;;;;;;;31.98;32.24;94759.47;834336;71;28517;-80
2021/08/12 11:31:23;;;;;;;9.63;8.93;;;;;;;30.19;38.78;94785.64;828472;71;28822;-79
2021/08/12 11:46:11;;;;;;;10.40;9.50;;;;;;;29.28;43.14;94770.83;835602;71;28742;-78
2021/08/12 12:01:19;;;;;;;10.07;9.17;;;;;;;29.19;42.01;94769.96;828652;71;28732;-81
2021/08/12 12:16:15;;;;;;;10.00;9.20;;;;;;;30.47;37.00;94756.06;828025;71;32267;-84
2021/08/12 12:31:19;;;;;;;9.27;8.57;;;;;;;30.40;35.17;94744.59;829148;71;28687;-84
2021/08/12 12:46:08;;;;;;;9.67;8.83;;;;;;;30.03;36.43;94722.66;834084;71;28643;-78
2021/08/12 13:01:11;;;;;;;9.60;8.60;;;;;;;30.08;36.35;94723.53;828401;71;28096;-79
2021/08/12 13:16:11;;;;;;;9.10;8.40;;;;;;;30.14;35.19;94726.55;834730;71;28220;-81
2021/08/12 13:31:18;;;;;;;11.03;10.13;;;;;;;30.03;41.32;94764.61;828327;71;29902;-77
2021/08/12 13:46:08;;;;;;;10.47;9.57;;;;;;;29.43;41.63;94726.86;828459;71;27663;-78
2021/08/12 14:01:12;;;;;;;10.67;9.67;;;;;;;29.24;43.89;94722.23;829570;71;31631;-79
2021/08/12 14:16:12;;;;;;;10.80;9.77;;;;;;;29.93;43.27;94716.20;827845;71;27721;-76
2021/08/12 14:31:17;;;;;;;10.37;9.40;;;;;;;30.29;40.29;94710.86;833855;71;30923;-78
2021/08/12 14:46:36;;;;;;;9.73;9.03;;;;;;;30.50;35.76;94704.39;827353;71;33093;-75
2021/08/12 15:16:09;;;;;;;9.77;8.97;;;;;;;30.48;35.29;94702.09;833964;71;30264;-77
2021/08/12 15:31:10;;;;;;;9.93;9.13;;;;;;;30.48;34.39;94698.63;827969;71;30883;-77
2021/08/12 15:46:15;;;;;;;9.03;8.23;;;;;;;30.44;35.79;94697.91;833902;71;33213;-77
2021/08/12 16:01:22;;;;;;;9.27;8.50;;;;;;;30.39;37.59;94708.61;833803;71;33360;-75
2021/08/12 16:16:15;;;;;;;8.80;8.10;;;;;;;30.35;38.30;94714.09;833926;71;32214;-78
2021/08/12 16:31:08;;;;;;;8.47;7.77;;;;;;;30.06;35.74;94717.77;835791;71;30737;-78
2021/08/12 16:46:24;;;;;;;9.30;8.50;;;;;;;29.87;37.03;94725.20;823596;70;31707;-80
2021/08/12 17:01:25;;;;;;;9.17;8.37;;;;;;;29.68;36.78;94731.37;828986;71;32716;-80
2021/08/12 17:16:15;;;;;;;9.37;8.57;;;;;;;29.49;38.58;94753.63;834640;71;29180;-76
2021/08/12 17:31:21;;;;;;;8.07;7.27;;;;;;;29.22;34.54;94763.77;827570;71;31726;-78
2021/08/12 17:46:11;;;;;;;8.87;7.80;;;;;;;29.06;35.95;94782.44;834005;71;29589;-78
2021/08/12 18:01:17;;;;;;;9.20;8.40;;;;;;;28.97;36.73;94812.59;827787;71;32750;-77
2021/08/12 18:16:23;;;;;;;10.17;7.80;;;;;;;28.91;36.52;94834.45;828611;71;29258;-79
2021/08/12 18:31:19;;;;;;;9.40;8.60;;;;;;;28.75;36.46;94860.61;833789;71;29834;-76
2021/08/12 19:01:25;;;;;;;8.57;7.67;;;;;;;28.07;38.00;94906.83;827797;71;32756;-79
2021/08/12 19:16:20;;;;;;;7.60;6.90;;;;;;;28.11;39.02;94917.79;827148;71;32689;-80
2021/08/12 19:31:11;;;;;;;9.50;6.50;;;;;;;28.09;39.33;94926.86;834000;71;29346;-77
2021/08/12 19:46:11;;;;;;;6.00;5.50;;;;;;;27.96;38.95;94929.77;833451;71;30317;-76
2021/08/12 20:01:23;;;;;;;8.37;7.47;;;;;;;28.00;38.84;94927.07;828062;71;30281;-77
2021/08/12 20:16:27;;;;;;;7.40;6.77;;;;;;;27.87;39.24;94936.16;833749;71;32762;-77
2021/08/12 20:31:23;;;;;;;7.07;6.40;;;;;;;27.84;38.55;94940.39;827557;71;32665;-77
2021/08/12 20:46:17;;;;;;;5.60;5.20;;;;;;;27.81;38.50;94943.84;827998;71;30265;-77
2021/08/12 21:16:09;;;;;;;7.20;6.50;;;;;;;27.70;38.34;94955.07;828063;71;29299;-78
2021/08/12 21:31:16;;;;;;;6.07;5.57;;;;;;;27.67;37.89;94955.41;829275;71;32750;-79
2021/08/12 21:46:14;;;;;;;5.17;4.77;;;;;;;;;;827326;71;33229;-77
2021/08/12 22:01:08;;;;;;;5.33;4.93;;;;;;;;;;833783;71;29923;-75
2021/08/12 22:16:08;;;;;;;6.40;4.90;;;;;;;;;;828117;71;29922;-77
2021/08/12 22:31:09;;;;;;;5.13;4.73;;;;;;;27.51;38.04;94971.98;827980;71;30376;-75
2021/08/12 22:46:19;;;;;;;7.27;5.50;;;;;;;27.64;38.13;94964.88;827931;71;32767;-78
2021/08/12 23:01:29;;;;;;;5.67;5.20;;;;;;;27.55;38.22;94967.36;833835;71;33180;-77
2021/08/12 23:16:17;;;;;;;5.87;5.13;;;;;;;27.51;38.17;94963.89;833804;71;32774;-78
2021/08/12 23:31:11;;;;;;;6.10;5.60;;;;;;;27.50;38.25;88018.20;834090;71;30796;-75
2021/08/12 23:46:15;;;;;;;6.40;5.80;;;;;;;;;;827440;71;32730;-78
